sensor_id;sensor_type;location;lat;lon;timestamp;temperature;humidity
18002;DHT22;9126;48.160;17.130;2022-11-20T00:01:27;5.70;55.80
18002;DHT22;9126;48.160;17.130;2022-11-20T00:03:56;5.60;55.80
18002;DHT22;9126;48.160;17.130;2022-11-20T00:06:25;5.60;56.00
18002;DHT22;9126;48.160;17.130;2022-11-20T00:08:54;5.60;56.10
18002;DHT22;9126;48.160;17.130;2022-11-20T00:11:23;5.60;56.10
18002;DHT22;9126;48.160;17.130;2022-11-20T00:13:53;5.60;56.10
18002;DHT22;9126;48.160;17.130;2022-11-20T00:16:22;5.70;56.10
18002;DHT22;9126;48.160;17.130;2022-11-20T00:18:49;5.70;56.10
18002;DHT22;9126;48.160;17.130;2022-11-20T00:21:18;5.70;56.10
18002;DHT22;9126;48.160;17.130;2022-11-20T00:23:46;5.80;56.10
18002;DHT22;9126;48.160;17.130;2022-11-20T00:26:15;5.80;56.00
18002;DHT22;9126;48.160;17.130;2022-11-20T00:28:43;5.90;56.00
18002;DHT22;9126;48.160;17.130;2022-11-20T00:31:12;6.00;55.90
18002;DHT22;9126;48.160;17.130;2022-11-20T00:33:39;5.90;55.80
18002;DHT22;9126;48.160;17.130;2022-11-20T00:36:09;5.90;55.70
18002;DHT22;9126;48.160;17.130;2022-11-20T00:38:36;6.00;55.80
18002;DHT22;9126;48.160;17.130;2022-11-20T00:41:07;6.00;55.80
18002;DHT22;9126;48.160;17.130;2022-11-20T00:43:34;6.10;55.70
18002;DHT22;9126;48.160;17.130;2022-11-20T00:46:02;6.00;55.50
18002;DHT22;9126;48.160;17.130;2022-11-20T00:48:29;6.00;55.50
18002;DHT22;9126;48.160;17.130;2022-11-20T00:50:57;5.90;55.40
18002;DHT22;9126;48.160;17.130;2022-11-20T00:53:24;5.90;55.50
18002;DHT22;9126;48.160;17.130;2022-11-20T00:55:55;5.90;55.50
18002;DHT22;9126;48.160;17.130;2022-11-20T00:58:25;5.80;55.60
18002;DHT22;9126;48.160;17.130;2022-11-20T01:00:52;5.70;55.60
18002;DHT22;9126;48.160;17.130;2022-11-20T01:03:19;5.70;55.70
18002;DHT22;9126;48.160;17.130;2022-11-20T01:05:46;5.60;55.80
18002;DHT22;9126;48.160;17.130;2022-11-20T01:08:13;5.70;55.90
18002;DHT22;9126;48.160;17.130;2022-11-20T01:10:40;5.70;56.00
18002;DHT22;9126;48.160;17.130;2022-11-20T01:13:07;5.80;56.10
18002;DHT22;9126;48.160;17.130;2022-11-20T01:15:52;5.80;56.30
18002;DHT22;9126;48.160;17.130;2022-11-20T01:18:19;5.70;56.30
18002;DHT22;9126;48.160;17.130;2022-11-20T01:20:46;5.70;56.50
18002;DHT22;9126;48.160;17.130;2022-11-20T01:23:13;5.70;56.60
18002;DHT22;9126;48.160;17.130;2022-11-20T01:25:40;5.70;56.70
18002;DHT22;9126;48.160;17.130;2022-11-20T01:28:07;5.80;56.80
18002;DHT22;9126;48.160;17.130;2022-11-20T01:30:34;5.80;56.70
18002;DHT22;9126;48.160;17.130;2022-11-20T01:33:02;5.70;56.80
18002;DHT22;9126;48.160;17.130;2022-11-20T01:35:29;5.80;56.90
18002;DHT22;9126;48.160;17.130;2022-11-20T01:37:56;6.00;56.90
18002;DHT22;9126;48.160;17.130;2022-11-20T01:40:23;6.00;56.80
18002;DHT22;9126;48.160;17.130;2022-11-20T01:42:56;6.00;56.70
18002;DHT22;9126;48.160;17.130;2022-11-20T01:45:59;6.00;56.70
18002;DHT22;9126;48.160;17.130;2022-11-20T01:48:33;6.10;56.70
18002;DHT22;9126;48.160;17.130;2022-11-20T01:51:02;6.00;56.70
18002;DHT22;9126;48.160;17.130;2022-11-20T01:53:33;5.80;56.70
18002;DHT22;9126;48.160;17.130;2022-11-20T01:56:04;5.90;56.90
18002;DHT22;9126;48.160;17.130;2022-11-20T01:58:35;5.80;57.40
18002;DHT22;9126;48.160;17.130;2022-11-20T02:01:03;5.90;56.90
18002;DHT22;9126;48.160;17.130;2022-11-20T02:03:32;5.90;57.00
18002;DHT22;9126;48.160;17.130;2022-11-20T02:06:04;6.00;57.00
18002;DHT22;9126;48.160;17.130;2022-11-20T02:08:34;6.00;57.10
18002;DHT22;9126;48.160;17.130;2022-11-20T02:11:02;6.00;57.00
18002;DHT22;9126;48.160;17.130;2022-11-20T02:13:29;5.90;57.00
18002;DHT22;9126;48.160;17.130;2022-11-20T02:16:21;5.80;57.10
18002;DHT22;9126;48.160;17.130;2022-11-20T02:18:50;5.80;57.30
18002;DHT22;9126;48.160;17.130;2022-11-20T02:21:27;5.90;57.40
18002;DHT22;9126;48.160;17.130;2022-11-20T02:24:03;6.00;57.40
18002;DHT22;9126;48.160;17.130;2022-11-20T02:26:33;6.00;57.30
18002;DHT22;9126;48.160;17.130;2022-11-20T02:29:01;5.90;57.30
18002;DHT22;9126;48.160;17.130;2022-11-20T02:31:29;5.90;57.40
18002;DHT22;9126;48.160;17.130;2022-11-20T02:33:56;5.90;57.50
18002;DHT22;9126;48.160;17.130;2022-11-20T02:36:25;6.00;57.70
18002;DHT22;9126;48.160;17.130;2022-11-20T02:38:53;6.10;57.70
18002;DHT22;9126;48.160;17.130;2022-11-20T02:41:22;6.10;57.70
18002;DHT22;9126;48.160;17.130;2022-11-20T02:43:56;6.00;57.60
18002;DHT22;9126;48.160;17.130;2022-11-20T02:46:23;5.90;57.70
18002;DHT22;9126;48.160;17.130;2022-11-20T02:48:50;6.00;57.90
18002;DHT22;9126;48.160;17.130;2022-11-20T02:51:17;6.20;58.10
18002;DHT22;9126;48.160;17.130;2022-11-20T02:53:44;6.30;58.10
18002;DHT22;9126;48.160;17.130;2022-11-20T02:56:11;6.30;58.30
18002;DHT22;9126;48.160;17.130;2022-11-20T02:58:39;6.30;58.40
18002;DHT22;9126;48.160;17.130;2022-11-20T03:01:06;6.20;58.80
18002;DHT22;9126;48.160;17.130;2022-11-20T03:03:33;6.10;59.30
18002;DHT22;9126;48.160;17.130;2022-11-20T03:06:00;6.10;59.70
18002;DHT22;9126;48.160;17.130;2022-11-20T03:08:27;6.00;60.00
18002;DHT22;9126;48.160;17.130;2022-11-20T03:10:54;5.90;60.30
18002;DHT22;9126;48.160;17.130;2022-11-20T03:13:21;5.80;60.60
18002;DHT22;9126;48.160;17.130;2022-11-20T03:15:50;5.70;61.10
18002;DHT22;9126;48.160;17.130;2022-11-20T03:18:17;5.80;61.60
18002;DHT22;9126;48.160;17.130;2022-11-20T03:20:44;5.80;61.90
18002;DHT22;9126;48.160;17.130;2022-11-20T03:23:10;6.00;62.30
18002;DHT22;9126;48.160;17.130;2022-11-20T03:25:37;6.00;62.50
18002;DHT22;9126;48.160;17.130;2022-11-20T03:28:04;6.00;62.70
18002;DHT22;9126;48.160;17.130;2022-11-20T03:30:31;6.00;62.80
18002;DHT22;9126;48.160;17.130;2022-11-20T03:33:00;6.00;63.80
18002;DHT22;9126;48.160;17.130;2022-11-20T03:35:27;5.90;63.30
18002;DHT22;9126;48.160;17.130;2022-11-20T03:37:54;5.90;63.50
18002;DHT22;9126;48.160;17.130;2022-11-20T03:40:21;5.90;63.70
18002;DHT22;9126;48.160;17.130;2022-11-20T03:42:48;6.00;63.80
18002;DHT22;9126;48.160;17.130;2022-11-20T03:45:16;6.00;63.70
18002;DHT22;9126;48.160;17.130;2022-11-20T03:47:44;5.80;63.70
18002;DHT22;9126;48.160;17.130;2022-11-20T03:50:13;5.70;63.90
18002;DHT22;9126;48.160;17.130;2022-11-20T03:52:41;5.80;64.20
18002;DHT22;9126;48.160;17.130;2022-11-20T03:55:08;5.80;64.30
18002;DHT22;9126;48.160;17.130;2022-11-20T03:57:35;5.90;64.50
18002;DHT22;9126;48.160;17.130;2022-11-20T04:00:03;6.00;64.60
18002;DHT22;9126;48.160;17.130;2022-11-20T04:02:30;5.90;64.60
18002;DHT22;9126;48.160;17.130;2022-11-20T04:04:57;6.00;65.50
18002;DHT22;9126;48.160;17.130;2022-11-20T04:07:26;6.10;65.00
18002;DHT22;9126;48.160;17.130;2022-11-20T04:09:52;6.10;64.90
18002;DHT22;9126;48.160;17.130;2022-11-20T04:12:19;6.10;65.00
18002;DHT22;9126;48.160;17.130;2022-11-20T04:14:46;6.20;65.10
18002;DHT22;9126;48.160;17.130;2022-11-20T04:17:13;6.20;65.10
18002;DHT22;9126;48.160;17.130;2022-11-20T04:19:40;6.30;65.10
18002;DHT22;9126;48.160;17.130;2022-11-20T04:22:07;6.40;65.30
18002;DHT22;9126;48.160;17.130;2022-11-20T04:24:35;6.40;65.30
18002;DHT22;9126;48.160;17.130;2022-11-20T04:27:02;6.40;65.20
18002;DHT22;9126;48.160;17.130;2022-11-20T04:29:29;6.20;65.10
18002;DHT22;9126;48.160;17.130;2022-11-20T04:31:56;6.10;65.50
18002;DHT22;9126;48.160;17.130;2022-11-20T04:34:23;6.00;65.80
18002;DHT22;9126;48.160;17.130;2022-11-20T04:36:50;6.10;66.00
18002;DHT22;9126;48.160;17.130;2022-11-20T04:39:17;6.10;66.20
18002;DHT22;9126;48.160;17.130;2022-11-20T04:41:45;6.10;66.30
18002;DHT22;9126;48.160;17.130;2022-11-20T04:44:12;6.10;67.10
18002;DHT22;9126;48.160;17.130;2022-11-20T04:46:40;6.00;66.50
18002;DHT22;9126;48.160;17.130;2022-11-20T04:49:08;6.10;66.70
18002;DHT22;9126;48.160;17.130;2022-11-20T04:51:35;6.20;66.70
18002;DHT22;9126;48.160;17.130;2022-11-20T04:54:02;6.20;66.90
18002;DHT22;9126;48.160;17.130;2022-11-20T04:56:29;6.20;66.90
18002;DHT22;9126;48.160;17.130;2022-11-20T04:59:01;6.30;67.00
18002;DHT22;9126;48.160;17.130;2022-11-20T05:01:28;6.40;67.20
18002;DHT22;9126;48.160;17.130;2022-11-20T05:03:55;6.50;67.20
18002;DHT22;9126;48.160;17.130;2022-11-20T05:06:22;6.50;67.20
18002;DHT22;9126;48.160;17.130;2022-11-20T05:08:49;6.50;67.10
18002;DHT22;9126;48.160;17.130;2022-11-20T05:11:18;6.50;67.20
18002;DHT22;9126;48.160;17.130;2022-11-20T05:13:45;6.50;67.20
18002;DHT22;9126;48.160;17.130;2022-11-20T05:16:15;6.50;67.20
18002;DHT22;9126;48.160;17.130;2022-11-20T05:18:43;6.40;67.30
18002;DHT22;9126;48.160;17.130;2022-11-20T05:21:11;6.30;67.40
18002;DHT22;9126;48.160;17.130;2022-11-20T05:23:39;6.00;67.40
18002;DHT22;9126;48.160;17.130;2022-11-20T05:26:08;6.00;67.90
18002;DHT22;9126;48.160;17.130;2022-11-20T05:28:35;6.00;68.30
18002;DHT22;9126;48.160;17.130;2022-11-20T05:31:06;6.10;68.50
18002;DHT22;9126;48.160;17.130;2022-11-20T05:33:35;6.20;68.60
18002;DHT22;9126;48.160;17.130;2022-11-20T05:36:03;6.20;68.60
18002;DHT22;9126;48.160;17.130;2022-11-20T05:38:30;6.20;68.70
18002;DHT22;9126;48.160;17.130;2022-11-20T05:41:03;6.20;68.80
18002;DHT22;9126;48.160;17.130;2022-11-20T05:43:32;6.20;68.80
18002;DHT22;9126;48.160;17.130;2022-11-20T05:46:00;6.20;68.90
18002;DHT22;9126;48.160;17.130;2022-11-20T05:48:27;6.20;68.90
18002;DHT22;9126;48.160;17.130;2022-11-20T05:50:56;6.20;68.90
18002;DHT22;9126;48.160;17.130;2022-11-20T05:53:23;6.30;69.00
18002;DHT22;9126;48.160;17.130;2022-11-20T05:55:57;6.20;69.00
18002;DHT22;9126;48.160;17.130;2022-11-20T05:58:24;6.20;69.10
18002;DHT22;9126;48.160;17.130;2022-11-20T06:00:51;6.20;69.10
18002;DHT22;9126;48.160;17.130;2022-11-20T06:03:18;6.20;69.20
18002;DHT22;9126;48.160;17.130;2022-11-20T06:05:45;6.10;69.30
18002;DHT22;9126;48.160;17.130;2022-11-20T06:08:13;6.00;69.50
18002;DHT22;9126;48.160;17.130;2022-11-20T06:10:40;6.10;69.70
18002;DHT22;9126;48.160;17.130;2022-11-20T06:13:07;6.10;69.70
18002;DHT22;9126;48.160;17.130;2022-11-20T06:15:34;6.20;69.90
18002;DHT22;9126;48.160;17.130;2022-11-20T06:18:01;6.30;69.80
18002;DHT22;9126;48.160;17.130;2022-11-20T06:20:28;6.40;69.80
18002;DHT22;9126;48.160;17.130;2022-11-20T06:22:55;6.40;69.70
18002;DHT22;9126;48.160;17.130;2022-11-20T06:25:23;6.30;69.80
18002;DHT22;9126;48.160;17.130;2022-11-20T06:27:50;6.30;69.70
18002;DHT22;9126;48.160;17.130;2022-11-20T06:30:17;6.10;69.80
18002;DHT22;9126;48.160;17.130;2022-11-20T06:32:44;5.90;70.10
18002;DHT22;9126;48.160;17.130;2022-11-20T06:35:11;5.90;70.40
18002;DHT22;9126;48.160;17.130;2022-11-20T06:37:37;5.80;70.70
18002;DHT22;9126;48.160;17.130;2022-11-20T06:40:06;5.80;70.90
18002;DHT22;9126;48.160;17.130;2022-11-20T06:42:34;6.00;71.20
18002;DHT22;9126;48.160;17.130;2022-11-20T06:45:01;6.10;71.20
18002;DHT22;9126;48.160;17.130;2022-11-20T06:47:28;6.30;71.20
18002;DHT22;9126;48.160;17.130;2022-11-20T06:49:55;6.20;71.00
18002;DHT22;9126;48.160;17.130;2022-11-20T06:52:22;6.20;71.10
18002;DHT22;9126;48.160;17.130;2022-11-20T06:54:49;6.30;71.10
18002;DHT22;9126;48.160;17.130;2022-11-20T06:57:16;6.40;71.20
18002;DHT22;9126;48.160;17.130;2022-11-20T06:59:44;6.50;71.10
18002;DHT22;9126;48.160;17.130;2022-11-20T07:02:11;6.60;71.00
18002;DHT22;9126;48.160;17.130;2022-11-20T07:04:40;6.70;70.90
18002;DHT22;9126;48.160;17.130;2022-11-20T07:07:08;6.80;70.70
18002;DHT22;9126;48.160;17.130;2022-11-20T07:09:35;6.70;70.50
18002;DHT22;9126;48.160;17.130;2022-11-20T07:12:02;6.60;70.40
18002;DHT22;9126;48.160;17.130;2022-11-20T07:14:29;6.50;70.40
18002;DHT22;9126;48.160;17.130;2022-11-20T07:16:57;6.60;70.50
18002;DHT22;9126;48.160;17.130;2022-11-20T07:19:26;6.60;70.50
18002;DHT22;9126;48.160;17.130;2022-11-20T07:21:54;6.70;70.50
18002;DHT22;9126;48.160;17.130;2022-11-20T07:24:20;6.80;70.40
18002;DHT22;9126;48.160;17.130;2022-11-20T07:26:47;6.90;70.30
18002;DHT22;9126;48.160;17.130;2022-11-20T07:29:14;7.00;70.30
18002;DHT22;9126;48.160;17.130;2022-11-20T07:31:42;7.10;70.30
18002;DHT22;9126;48.160;17.130;2022-11-20T07:34:10;7.10;70.30
18002;DHT22;9126;48.160;17.130;2022-11-20T07:36:37;7.10;70.20
18002;DHT22;9126;48.160;17.130;2022-11-20T07:39:04;7.10;70.30
18002;DHT22;9126;48.160;17.130;2022-11-20T07:41:31;7.10;70.30
18002;DHT22;9126;48.160;17.130;2022-11-20T07:43:58;7.20;70.20
18002;DHT22;9126;48.160;17.130;2022-11-20T07:46:25;7.20;70.20
18002;DHT22;9126;48.160;17.130;2022-11-20T07:48:52;7.30;70.30
18002;DHT22;9126;48.160;17.130;2022-11-20T07:51:20;7.30;70.30
18002;DHT22;9126;48.160;17.130;2022-11-20T07:53:53;7.30;70.20
18002;DHT22;9126;48.160;17.130;2022-11-20T07:56:20;7.30;70.30
18002;DHT22;9126;48.160;17.130;2022-11-20T07:58:47;7.30;70.30
18002;DHT22;9126;48.160;17.130;2022-11-20T08:01:14;7.30;70.30
18002;DHT22;9126;48.160;17.130;2022-11-20T08:03:41;7.30;70.40
18002;DHT22;9126;48.160;17.130;2022-11-20T08:06:08;7.30;70.40
18002;DHT22;9126;48.160;17.130;2022-11-20T08:08:36;7.30;70.40
18002;DHT22;9126;48.160;17.130;2022-11-20T08:11:05;7.20;70.40
18002;DHT22;9126;48.160;17.130;2022-11-20T08:13:57;7.10;70.50
18002;DHT22;9126;48.160;17.130;2022-11-20T08:16:42;7.00;70.50
18002;DHT22;9126;48.160;17.130;2022-11-20T08:19:09;6.80;70.40
18002;DHT22;9126;48.160;17.130;2022-11-20T08:21:36;6.80;70.60
18002;DHT22;9126;48.160;17.130;2022-11-20T08:24:05;6.80;70.60
18002;DHT22;9126;48.160;17.130;2022-11-20T08:26:34;6.80;70.60
18002;DHT22;9126;48.160;17.130;2022-11-20T08:29:02;6.90;70.60
18002;DHT22;9126;48.160;17.130;2022-11-20T08:31:30;6.90;70.50
18002;DHT22;9126;48.160;17.130;2022-11-20T08:33:57;6.80;70.40
18002;DHT22;9126;48.160;17.130;2022-11-20T08:36:25;6.90;70.40
18002;DHT22;9126;48.160;17.130;2022-11-20T08:38:54;7.00;70.40
18002;DHT22;9126;48.160;17.130;2022-11-20T08:41:23;7.00;70.20
18002;DHT22;9126;48.160;17.130;2022-11-20T08:43:55;7.10;70.20
18002;DHT22;9126;48.160;17.130;2022-11-20T08:46:23;7.20;70.10
18002;DHT22;9126;48.160;17.130;2022-11-20T08:48:50;7.20;70.00
18002;DHT22;9126;48.160;17.130;2022-11-20T08:51:18;7.30;70.00
18002;DHT22;9126;48.160;17.130;2022-11-20T08:53:45;7.10;69.60
18002;DHT22;9126;48.160;17.130;2022-11-20T08:56:17;7.00;69.70
18002;DHT22;9126;48.160;17.130;2022-11-20T08:58:45;7.10;69.90
18002;DHT22;9126;48.160;17.130;2022-11-20T09:01:12;7.20;69.80
18002;DHT22;9126;48.160;17.130;2022-11-20T09:03:39;7.30;69.60
18002;DHT22;9126;48.160;17.130;2022-11-20T09:06:07;7.30;69.40
18002;DHT22;9126;48.160;17.130;2022-11-20T09:08:35;7.40;69.40
18002;DHT22;9126;48.160;17.130;2022-11-20T09:11:03;7.40;69.20
18002;DHT22;9126;48.160;17.130;2022-11-20T09:13:31;7.60;69.10
18002;DHT22;9126;48.160;17.130;2022-11-20T09:16:03;7.70;69.00
18002;DHT22;9126;48.160;17.130;2022-11-20T09:18:32;7.80;68.70
18002;DHT22;9126;48.160;17.130;2022-11-20T09:21:00;7.90;68.60
18002;DHT22;9126;48.160;17.130;2022-11-20T09:23:31;7.90;68.30
18002;DHT22;9126;48.160;17.130;2022-11-20T09:26:02;8.00;68.30
18002;DHT22;9126;48.160;17.130;2022-11-20T09:28:29;8.10;68.10
18002;DHT22;9126;48.160;17.130;2022-11-20T09:30:56;8.30;67.90
18002;DHT22;9126;48.160;17.130;2022-11-20T09:33:25;8.30;67.50
18002;DHT22;9126;48.160;17.130;2022-11-20T09:35:52;8.30;67.30
18002;DHT22;9126;48.160;17.130;2022-11-20T09:38:19;8.40;67.30
18002;DHT22;9126;48.160;17.130;2022-11-20T09:40:50;8.40;67.10
18002;DHT22;9126;48.160;17.130;2022-11-20T09:43:27;8.40;66.90
18002;DHT22;9126;48.160;17.130;2022-11-20T09:46:06;8.50;66.70
18002;DHT22;9126;48.160;17.130;2022-11-20T09:48:45;8.50;66.50
18002;DHT22;9126;48.160;17.130;2022-11-20T09:51:23;8.50;66.40
18002;DHT22;9126;48.160;17.130;2022-11-20T09:54:04;8.50;66.40
18002;DHT22;9126;48.160;17.130;2022-11-20T09:56:34;8.70;66.30
18002;DHT22;9126;48.160;17.130;2022-11-20T09:59:07;8.80;66.20
18002;DHT22;9126;48.160;17.130;2022-11-20T10:01:36;8.90;65.90
18002;DHT22;9126;48.160;17.130;2022-11-20T10:04:12;8.90;65.80
18002;DHT22;9126;48.160;17.130;2022-11-20T10:06:43;9.00;65.60
18002;DHT22;9126;48.160;17.130;2022-11-20T10:09:21;9.00;65.30
18002;DHT22;9126;48.160;17.130;2022-11-20T10:11:58;9.00;65.20
18002;DHT22;9126;48.160;17.130;2022-11-20T10:14:36;9.00;65.00
18002;DHT22;9126;48.160;17.130;2022-11-20T10:17:15;8.90;65.00
18002;DHT22;9126;48.160;17.130;2022-11-20T10:19:59;8.80;65.00
18002;DHT22;9126;48.160;17.130;2022-11-20T10:22:39;8.70;64.90
18002;DHT22;9126;48.160;17.130;2022-11-20T10:25:14;8.70;65.00
18002;DHT22;9126;48.160;17.130;2022-11-20T10:27:55;8.60;65.10
18002;DHT22;9126;48.160;17.130;2022-11-20T10:30:23;8.50;65.20
18002;DHT22;9126;48.160;17.130;2022-11-20T10:32:54;8.50;65.40
18002;DHT22;9126;48.160;17.130;2022-11-20T10:35:25;8.50;65.60
18002;DHT22;9126;48.160;17.130;2022-11-20T10:37:56;8.40;65.70
18002;DHT22;9126;48.160;17.130;2022-11-20T10:40:31;8.50;65.80
18002;DHT22;9126;48.160;17.130;2022-11-20T10:43:02;8.50;65.70
18002;DHT22;9126;48.160;17.130;2022-11-20T10:45:48;8.60;65.70
18002;DHT22;9126;48.160;17.130;2022-11-20T10:48:20;8.60;65.80
18002;DHT22;9126;48.160;17.130;2022-11-20T10:51:10;8.60;65.70
18002;DHT22;9126;48.160;17.130;2022-11-20T10:53:57;8.70;65.90
18002;DHT22;9126;48.160;17.130;2022-11-20T10:56:30;8.80;65.80
18002;DHT22;9126;48.160;17.130;2022-11-20T10:59:17;8.80;65.80
18002;DHT22;9126;48.160;17.130;2022-11-20T11:01:48;8.80;65.90
18002;DHT22;9126;48.160;17.130;2022-11-20T11:04:28;8.70;65.90
18002;DHT22;9126;48.160;17.130;2022-11-20T11:07:05;8.50;66.00
18002;DHT22;9126;48.160;17.130;2022-11-20T11:09:35;8.40;66.20
18002;DHT22;9126;48.160;17.130;2022-11-20T11:12:07;8.70;66.50
18002;DHT22;9126;48.160;17.130;2022-11-20T11:14:45;8.90;66.40
18002;DHT22;9126;48.160;17.130;2022-11-20T11:17:24;9.10;66.30
18002;DHT22;9126;48.160;17.130;2022-11-20T11:20:00;9.20;65.90
18002;DHT22;9126;48.160;17.130;2022-11-20T11:22:31;9.10;65.70
18002;DHT22;9126;48.160;17.130;2022-11-20T11:24:59;9.00;65.60
18002;DHT22;9126;48.160;17.130;2022-11-20T11:27:27;9.00;65.70
18002;DHT22;9126;48.160;17.130;2022-11-20T11:30:10;9.00;65.70
18002;DHT22;9126;48.160;17.130;2022-11-20T11:32:37;9.00;65.60
18002;DHT22;9126;48.160;17.130;2022-11-20T11:35:06;9.10;65.80
18002;DHT22;9126;48.160;17.130;2022-11-20T11:37:37;9.10;65.70
18002;DHT22;9126;48.160;17.130;2022-11-20T11:40:08;9.10;65.70
18002;DHT22;9126;48.160;17.130;2022-11-20T11:42:41;9.10;65.60
18002;DHT22;9126;48.160;17.130;2022-11-20T11:45:14;9.00;65.60
18002;DHT22;9126;48.160;17.130;2022-11-20T11:47:45;9.00;66.00
18002;DHT22;9126;48.160;17.130;2022-11-20T11:50:16;9.10;65.70
18002;DHT22;9126;48.160;17.130;2022-11-20T11:52:48;9.10;65.60
18002;DHT22;9126;48.160;17.130;2022-11-20T11:55:24;9.20;65.60
18002;DHT22;9126;48.160;17.130;2022-11-20T11:57:55;9.20;65.50
18002;DHT22;9126;48.160;17.130;2022-11-20T12:00:26;9.30;65.50
18002;DHT22;9126;48.160;17.130;2022-11-20T12:03:00;9.30;66.00
18002;DHT22;9126;48.160;17.130;2022-11-20T12:05:35;9.40;65.30
18002;DHT22;9126;48.160;17.130;2022-11-20T12:08:10;9.40;65.20
18002;DHT22;9126;48.160;17.130;2022-11-20T12:10:45;9.50;65.20
18002;DHT22;9126;48.160;17.130;2022-11-20T12:13:20;9.60;65.00
18002;DHT22;9126;48.160;17.130;2022-11-20T12:15:50;9.60;64.80
18002;DHT22;9126;48.160;17.130;2022-11-20T12:18:19;9.60;64.80
18002;DHT22;9126;48.160;17.130;2022-11-20T12:20:56;9.50;64.80
18002;DHT22;9126;48.160;17.130;2022-11-20T12:23:37;9.60;64.80
18002;DHT22;9126;48.160;17.130;2022-11-20T12:26:15;9.50;64.70
18002;DHT22;9126;48.160;17.130;2022-11-20T12:28:55;9.50;64.80
18002;DHT22;9126;48.160;17.130;2022-11-20T12:31:47;9.40;64.80
18002;DHT22;9126;48.160;17.130;2022-11-20T12:34:32;9.50;65.00
18002;DHT22;9126;48.160;17.130;2022-11-20T12:37:08;9.50;65.00
18002;DHT22;9126;48.160;17.130;2022-11-20T12:39:41;9.60;65.10
18002;DHT22;9126;48.160;17.130;2022-11-20T12:42:23;9.60;65.00
18002;DHT22;9126;48.160;17.130;2022-11-20T12:45:28;9.50;65.00
18002;DHT22;9126;48.160;17.130;2022-11-20T12:48:22;9.50;65.10
18002;DHT22;9126;48.160;17.130;2022-11-20T12:51:11;9.40;65.10
18002;DHT22;9126;48.160;17.130;2022-11-20T12:53:49;9.50;65.30
18002;DHT22;9126;48.160;17.130;2022-11-20T12:56:27;9.50;65.20
18002;DHT22;9126;48.160;17.130;2022-11-20T12:59:06;9.50;65.30
18002;DHT22;9126;48.160;17.130;2022-11-20T13:01:40;9.50;65.30
18002;DHT22;9126;48.160;17.130;2022-11-20T13:04:23;9.60;65.30
18002;DHT22;9126;48.160;17.130;2022-11-20T13:06:58;9.60;65.30
18002;DHT22;9126;48.160;17.130;2022-11-20T13:09:27;9.50;65.30
18002;DHT22;9126;48.160;17.130;2022-11-20T13:12:03;9.40;65.30
18002;DHT22;9126;48.160;17.130;2022-11-20T13:14:35;9.50;65.40
18002;DHT22;9126;48.160;17.130;2022-11-20T13:17:07;9.50;65.90
18002;DHT22;9126;48.160;17.130;2022-11-20T13:19:36;9.40;65.20
18002;DHT22;9126;48.160;17.130;2022-11-20T13:22:04;9.40;65.30
18002;DHT22;9126;48.160;17.130;2022-11-20T13:24:32;9.40;65.40
18002;DHT22;9126;48.160;17.130;2022-11-20T13:27:16;9.40;65.40
18002;DHT22;9126;48.160;17.130;2022-11-20T13:29:45;9.50;65.50
18002;DHT22;9126;48.160;17.130;2022-11-20T13:32:15;9.50;65.50
18002;DHT22;9126;48.160;17.130;2022-11-20T13:34:52;9.50;65.40
18002;DHT22;9126;48.160;17.130;2022-11-20T13:37:26;9.50;65.50
18002;DHT22;9126;48.160;17.130;2022-11-20T13:40:05;9.60;65.60
18002;DHT22;9126;48.160;17.130;2022-11-20T13:42:37;9.80;65.50
18002;DHT22;9126;48.160;17.130;2022-11-20T13:45:11;10.00;65.40
18002;DHT22;9126;48.160;17.130;2022-11-20T13:47:48;10.10;65.20
18002;DHT22;9126;48.160;17.130;2022-11-20T13:50:15;10.20;65.00
18002;DHT22;9126;48.160;17.130;2022-11-20T13:52:47;10.30;64.80
18002;DHT22;9126;48.160;17.130;2022-11-20T13:55:23;10.30;64.60
18002;DHT22;9126;48.160;17.130;2022-11-20T13:58:23;10.30;64.40
18002;DHT22;9126;48.160;17.130;2022-11-20T14:00:58;10.50;64.30
18002;DHT22;9126;48.160;17.130;2022-11-20T14:03:29;10.50;64.10
18002;DHT22;9126;48.160;17.130;2022-11-20T14:06:02;10.40;63.90
18002;DHT22;9126;48.160;17.130;2022-11-20T14:08:36;10.30;63.90
18002;DHT22;9126;48.160;17.130;2022-11-20T14:11:04;10.30;64.00
18002;DHT22;9126;48.160;17.130;2022-11-20T14:13:33;10.30;64.00
18002;DHT22;9126;48.160;17.130;2022-11-20T14:16:00;10.30;64.00
18002;DHT22;9126;48.160;17.130;2022-11-20T14:18:27;10.30;63.90
18002;DHT22;9126;48.160;17.130;2022-11-20T14:20:55;10.30;63.90
18002;DHT22;9126;48.160;17.130;2022-11-20T14:23:27;10.20;64.50
18002;DHT22;9126;48.160;17.130;2022-11-20T14:25:54;10.00;63.90
18002;DHT22;9126;48.160;17.130;2022-11-20T14:28:25;10.00;64.00
18002;DHT22;9126;48.160;17.130;2022-11-20T14:30:54;9.90;64.10
18002;DHT22;9126;48.160;17.130;2022-11-20T14:33:22;9.90;64.20
18002;DHT22;9126;48.160;17.130;2022-11-20T14:35:53;9.80;64.20
18002;DHT22;9126;48.160;17.130;2022-11-20T14:38:23;9.70;64.30
18002;DHT22;9126;48.160;17.130;2022-11-20T14:40:51;9.60;64.40
18002;DHT22;9126;48.160;17.130;2022-11-20T14:43:21;9.60;64.50
18002;DHT22;9126;48.160;17.130;2022-11-20T14:45:57;9.60;64.60
18002;DHT22;9126;48.160;17.130;2022-11-20T14:48:30;9.50;64.70
18002;DHT22;9126;48.160;17.130;2022-11-20T14:50:58;9.40;64.80
18002;DHT22;9126;48.160;17.130;2022-11-20T14:53:29;9.30;65.00
18002;DHT22;9126;48.160;17.130;2022-11-20T14:55:58;9.20;65.10
18002;DHT22;9126;48.160;17.130;2022-11-20T14:58:27;9.10;65.20
18002;DHT22;9126;48.160;17.130;2022-11-20T15:00:57;9.10;65.50
18002;DHT22;9126;48.160;17.130;2022-11-20T15:03:31;9.00;65.50
18002;DHT22;9126;48.160;17.130;2022-11-20T15:05:58;8.90;65.70
18002;DHT22;9126;48.160;17.130;2022-11-20T15:08:25;8.80;65.90
18002;DHT22;9126;48.160;17.130;2022-11-20T15:11:02;8.80;66.10
18002;DHT22;9126;48.160;17.130;2022-11-20T15:13:31;8.70;66.30
18002;DHT22;9126;48.160;17.130;2022-11-20T15:16:02;8.70;66.40
18002;DHT22;9126;48.160;17.130;2022-11-20T15:18:32;8.70;66.70
18002;DHT22;9126;48.160;17.130;2022-11-20T15:21:03;8.70;66.80
18002;DHT22;9126;48.160;17.130;2022-11-20T15:23:30;8.60;66.90
18002;DHT22;9126;48.160;17.130;2022-11-20T15:25:57;8.50;67.20
18002;DHT22;9126;48.160;17.130;2022-11-20T15:28:30;8.40;67.30
18002;DHT22;9126;48.160;17.130;2022-11-20T15:30:58;8.30;67.50
18002;DHT22;9126;48.160;17.130;2022-11-20T15:33:28;8.20;67.80
18002;DHT22;9126;48.160;17.130;2022-11-20T15:35:55;8.20;68.70
18002;DHT22;9126;48.160;17.130;2022-11-20T15:38:22;8.20;68.30
18002;DHT22;9126;48.160;17.130;2022-11-20T15:40:49;8.10;69.10
18002;DHT22;9126;48.160;17.130;2022-11-20T15:43:16;8.00;68.60
18002;DHT22;9126;48.160;17.130;2022-11-20T15:45:46;8.00;68.80
18002;DHT22;9126;48.160;17.130;2022-11-20T15:48:15;8.00;69.00
18002;DHT22;9126;48.160;17.130;2022-11-20T15:50:51;8.10;69.40
18002;DHT22;9126;48.160;17.130;2022-11-20T15:53:19;8.10;69.60
18002;DHT22;9126;48.160;17.130;2022-11-20T15:55:46;8.10;69.60
18002;DHT22;9126;48.160;17.130;2022-11-20T15:58:13;8.10;69.70
18002;DHT22;9126;48.160;17.130;2022-11-20T16:00:39;8.00;69.70
18002;DHT22;9126;48.160;17.130;2022-11-20T16:03:09;8.00;69.90
18002;DHT22;9126;48.160;17.130;2022-11-20T16:05:36;8.00;69.90